Time;durP1;ratioP1;P1;durP2;ratioP2;P2;SDS_P1;SDS_P2;PMS_P1;PMS_P2;Temp;Humidity;BMP_temperature;BMP_pressure;BME280_temperature;BME280_humidity;BME280_pressure;Samples;Min_cycle;Max_cycle;Signal;HPM_P1;HPM_P2
2022/07/16 00:03:47;;;;;;;2.80;1.80;;;;;;;;;;5025341;27;99215;-70
2022/07/16 00:06:14;;;;;;;1.98;1.63;;;;;;;;;;5031081;27;98643;-70
2022/07/16 00:08:40;;;;;;;2.00;1.75;;;;;;;;;;5040878;27;98905;-70
2022/07/16 00:11:06;;;;;;;2.78;1.75;;;;;;;;;;5030607;27;99412;-70
2022/07/16 00:13:33;;;;;;;1.60;1.50;;;;;;;;;;5033065;27;100694;-70
2022/07/16 00:15:59;;;;;;;5.97;1.92;;;;;;;;;;5025406;27;99737;-70
2022/07/16 00:21:11;;;;;;;5.25;1.88;;;;;;;;;;5032654;27;99535;-69
2022/07/16 00:23:37;;;;;;;4.03;1.63;;;;;;;;;;5028450;27;100868;-70
2022/07/16 00:26:04;;;;;;;4.88;1.60;;;;;;;;;;5027033;27;99721;-69
2022/07/16 00:28:30;;;;;;;6.32;1.80;;;;;;;;;;5029229;27;100373;-70
2022/07/16 00:30:57;;;;;;;4.05;1.65;;;;;;;;;;5034014;27;100620;-70
2022/07/16 00:33:23;;;;;;;5.78;2.20;;;;;;;;;;5033345;27;99012;-69
2022/07/16 00:35:50;;;;;;;3.00;2.00;;;;;;;;;;5030984;27;99524;-69
2022/07/16 00:38:16;;;;;;;3.58;1.85;;;;;;;;;;5038932;27;100036;-70
2022/07/16 00:40:42;;;;;;;2.30;1.63;;;;;;;;;;5031979;27;98710;-70
2022/07/16 00:43:10;;;;;;;2.47;2.00;;;;;;;;;;5027114;27;99812;-70
2022/07/16 00:45:36;;;;;;;3.95;2.10;;;;;;;;;;5024266;27;99200;-70
2022/07/16 00:48:03;;;;;;;2.10;1.80;;;;;;;;;;5025395;27;100519;-70
2022/07/16 00:50:30;;;;;;;2.08;1.55;;;;;;;;;;5031727;27;99934;-69
2022/07/16 00:52:58;;;;;;;4.47;2.92;;;;;;;;;;5030242;27;99947;-69
2022/07/16 00:55:24;;;;;;;2.83;1.80;;;;;;;;;;5030044;27;99537;-69
2022/07/16 00:57:50;;;;;;;11.48;2.10;;;;;;;;;;5030170;27;100274;-69
2022/07/16 01:00:17;;;;;;;2.65;2.00;;;;;;;;;;5029933;27;99258;-69
2022/07/16 01:02:43;;;;;;;5.65;2.03;;;;;;;;;;5029303;27;99907;-70
2022/07/16 01:05:10;;;;;;;3.05;1.80;;;;;;;;;;5028454;27;99478;-70
2022/07/16 01:07:36;;;;;;;3.30;1.77;;;;;;;;;;5025449;27;101030;-70
2022/07/16 01:10:03;;;;;;;2.95;1.90;;;;;;;;;;5027868;27;99467;-70
2022/07/16 01:12:30;;;;;;;5.82;1.92;;;;;;;;;;5024460;27;99860;-70
2022/07/16 01:14:57;;;;;;;5.40;1.65;;;;;;;;;;5027250;27;100053;-70
2022/07/16 01:17:23;;;;;;;6.95;2.13;;;;;;;;;;5025470;27;99639;-69
2022/07/16 01:19:50;;;;;;;3.03;1.70;;;;;;;;;;5031181;27;99445;-70
2022/07/16 01:22:20;;;;;;;3.60;2.08;;;;;;;;;;5024333;27;101445;-70
2022/07/16 01:24:47;;;;;;;1.80;1.65;;;;;;;;;;5031917;27;100201;-70
2022/07/16 01:27:14;;;;;;;5.35;2.22;;;;;;;;;;5027075;27;99879;-70
2022/07/16 01:29:40;;;;;;;2.42;1.95;;;;;;;;;;5027201;27;98811;-70
2022/07/16 01:32:07;;;;;;;2.67;2.10;;;;;;;;;;5029350;27;100289;-70
2022/07/16 01:34:33;;;;;;;3.20;2.13;;;;;;;;;;5026428;27;99913;-70
2022/07/16 01:37:03;;;;;;;6.60;1.85;;;;;;;;;;5030929;27;101212;-70
2022/07/16 01:39:30;;;;;;;5.57;2.35;;;;;;;;;;5034078;27;99441;-71
2022/07/16 01:41:58;;;;;;;3.63;1.83;;;;;;;;;;5032596;27;99079;-70
2022/07/16 01:44:26;;;;;;;7.50;2.10;;;;;;;;;;5039455;27;99286;-72
2022/07/16 01:46:53;;;;;;;2.00;1.77;;;;;;;;;;5029201;27;99164;-71
2022/07/16 01:49:20;;;;;;;2.83;2.13;;;;;;;;;;5029736;27;99511;-69
2022/07/16 01:51:47;;;;;;;6.13;2.42;;;;;;;;;;5042366;27;98656;-70
2022/07/16 01:54:13;;;;;;;2.00;1.88;;;;;;;;;;5043120;27;99188;-70
2022/07/16 01:56:40;;;;;;;3.67;1.98;;;;;;;;;;5032490;27;99648;-69
2022/07/16 01:59:07;;;;;;;3.25;1.90;;;;;;;;;;5033053;27;99843;-70
2022/07/16 02:01:33;;;;;;;3.97;2.15;;;;;;;;;;5043525;27;99972;-70
2022/07/16 02:04:00;;;;;;;3.67;2.03;;;;;;;;;;5038427;27;100867;-69
2022/07/16 02:06:26;;;;;;;4.65;2.03;;;;;;;;;;5032926;27;98609;-70
2022/07/16 02:08:53;;;;;;;8.57;2.20;;;;;;;;;;5031749;27;100307;-70
2022/07/16 02:11:19;;;;;;;5.78;1.95;;;;;;;;;;5032074;27;100417;-70
2022/07/16 02:13:46;;;;;;;2.92;2.05;;;;;;;;;;5041292;27;100313;-70
2022/07/16 02:16:12;;;;;;;5.90;2.10;;;;;;;;;;5029433;27;99209;-70
2022/07/16 02:18:38;;;;;;;3.38;1.95;;;;;;;;;;5035794;27;97797;-70
2022/07/16 02:21:05;;;;;;;4.35;2.10;;;;;;;;;;5031648;27;99535;-70
2022/07/16 02:23:32;;;;;;;4.93;1.95;;;;;;;;;;5029458;27;100365;-70
2022/07/16 02:25:59;;;;;;;3.95;2.95;;;;;;;;;;5035651;27;99301;-70
2022/07/16 02:28:25;;;;;;;4.00;2.25;;;;;;;;;;5030910;27;100737;-70
2022/07/16 02:30:52;;;;;;;4.78;2.40;;;;;;;;;;5031263;27;99650;-70
2022/07/16 02:33:19;;;;;;;5.47;2.38;;;;;;;;;;5025494;27;99347;-70
2022/07/16 02:35:45;;;;;;;5.07;2.97;;;;;;;;;;5029552;27;100262;-70
2022/07/16 02:38:12;;;;;;;5.60;2.80;;;;;;;;;;5028507;27;98574;-70
2022/07/16 02:40:40;;;;;;;4.25;2.50;;;;;;;;;;5023746;27;99381;-70
2022/07/16 02:43:07;;;;;;;13.07;2.42;;;;;;;;;;5023463;27;99257;-69
2022/07/16 02:45:34;;;;;;;6.18;2.70;;;;;;;;;;5025683;27;99965;-70
2022/07/16 02:48:00;;;;;;;2.83;2.58;;;;;;;;;;5025628;27;99136;-70
2022/07/16 02:50:27;;;;;;;6.72;2.85;;;;;;;;;;5029858;27;100860;-70
2022/07/16 02:52:54;;;;;;;5.88;3.03;;;;;;;;;;5030247;27;100700;-71
2022/07/16 02:55:20;;;;;;;3.55;2.80;;;;;;;;;;5023757;27;100229;-70
2022/07/16 02:57:47;;;;;;;4.72;2.60;;;;;;;;;;5030811;27;99314;-70
2022/07/16 03:00:15;;;;;;;7.68;3.08;;;;;;;;;;5027898;27;100868;-70
2022/07/16 03:02:41;;;;;;;3.28;2.83;;;;;;;;;;5028051;27;100526;-70
2022/07/16 03:05:08;;;;;;;3.83;3.35;;;;;;;;;;5031352;27;100265;-70
2022/07/16 03:07:34;;;;;;;5.85;3.40;;;;;;;;;;5032141;27;99322;-70
2022/07/16 03:10:02;;;;;;;9.25;3.40;;;;;;;;;;5030074;27;100405;-70
2022/07/16 03:12:28;;;;;;;6.43;3.75;;;;;;;;;;5039495;27;98955;-70
2022/07/16 03:14:55;;;;;;;5.28;3.22;;;;;;;;;;5035579;27;101793;-70
2022/07/16 03:17:22;;;;;;;9.65;3.63;;;;;;;;;;5038186;27;99752;-71
2022/07/16 03:19:48;;;;;;;5.90;3.33;;;;;;;;;;5032693;27;100044;-70
2022/07/16 03:22:16;;;;;;;4.65;3.50;;;;;;;;;;5026838;27;100381;-70
2022/07/16 03:24:42;;;;;;;4.55;3.25;;;;;;;;;;5035370;27;98734;-70
2022/07/16 03:27:08;;;;;;;11.07;3.08;;;;;;;;;;5032157;27;100126;-69
2022/07/16 03:29:35;;;;;;;6.63;2.92;;;;;;;;;;5028738;27;100479;-70
2022/07/16 03:32:01;;;;;;;3.80;2.80;;;;;;;;;;5029606;27;99302;-71
2022/07/16 03:34:28;;;;;;;8.57;2.70;;;;;;;;;;5033446;27;100081;-70
2022/07/16 03:36:55;;;;;;;3.55;2.83;;;;;;;;;;5031625;27;99957;-70
2022/07/16 03:39:21;;;;;;;6.47;2.90;;;;;;;;;;5028907;27;101388;-70
2022/07/16 03:41:47;;;;;;;6.65;2.85;;;;;;;;;;5033965;27;100205;-70
2022/07/16 03:44:14;;;;;;;4.63;2.85;;;;;;;;;;5031316;27;99049;-70
2022/07/16 03:46:40;;;;;;;5.63;2.75;;;;;;;;;;5031438;27;99743;-70
2022/07/16 03:49:07;;;;;;;5.22;2.97;;;;;;;;;;5032647;27;100440;-70
2022/07/16 03:51:34;;;;;;;5.00;2.63;;;;;;;;;;5031109;27;99925;-70
2022/07/16 03:54:01;;;;;;;6.38;3.13;;;;;;;;;;5032329;27;101091;-71
2022/07/16 03:56:27;;;;;;;6.40;2.67;;;;;;;;;;5027272;27;98182;-70
2022/07/16 03:58:54;;;;;;;6.78;2.95;;;;;;;;;;5029000;27;99784;-70
2022/07/16 04:01:21;;;;;;;6.95;2.70;;;;;;;;;;5025736;27;101612;-70
2022/07/16 04:03:47;;;;;;;10.48;3.70;;;;;;;;;;5027635;27;100776;-71
2022/07/16 04:06:14;;;;;;;6.85;2.70;;;;;;;;;;5032337;27;100087;-70
2022/07/16 04:08:40;;;;;;;10.25;2.67;;;;;;;;;;5028410;27;101088;-70
2022/07/16 04:11:07;;;;;;;6.63;2.78;;;;;;;;;;5027159;27;99570;-70
2022/07/16 04:13:36;;;;;;;3.25;2.13;;;;;;;;;;5032335;27;98928;-70
2022/07/16 04:16:02;;;;;;;4.88;1.98;;;;;;;;;;5030891;27;101177;-70
2022/07/16 04:18:29;;;;;;;5.70;1.77;;;;;;;;;;5026139;27;100314;-70
2022/07/16 04:20:55;;;;;;;5.50;2.10;;;;;;;;;;5028023;27;100469;-70
2022/07/16 04:23:21;;;;;;;2.42;1.60;;;;;;;;;;5028654;27;99795;-70
2022/07/16 04:25:48;;;;;;;2.38;1.33;;;;;;;;;;5028714;27;100057;-71
2022/07/16 04:28:14;;;;;;;3.83;1.73;;;;;;;;;;5027175;27;101338;-71
2022/07/16 04:30:40;;;;;;;5.50;1.55;;;;;;;;;;5029615;27;98629;-71
2022/07/16 04:33:07;;;;;;;3.55;1.40;;;;;;;;;;5023039;27;100023;-71
2022/07/16 04:35:33;;;;;;;2.88;1.20;;;;;;;;;;5026302;27;99557;-70
2022/07/16 04:38:00;;;;;;;5.38;1.40;;;;;;;;;;5031193;27;99593;-70
2022/07/16 04:40:26;;;;;;;3.88;1.20;;;;;;;;;;5028026;27;100127;-70
2022/07/16 04:42:53;;;;;;;3.33;1.25;;;;;;;;;;5026483;27;99204;-71
2022/07/16 04:45:19;;;;;;;3.40;1.60;;;;;;;;;;5026862;27;99206;-70
2022/07/16 04:47:45;;;;;;;7.35;1.40;;;;;;;;;;5031564;27;100447;-70
2022/07/16 04:50:14;;;;;;;1.88;1.20;;;;;;;;;;5026781;27;99502;-70
2022/07/16 04:52:40;;;;;;;4.20;1.05;;;;;;;;;;5026140;27;99775;-71
2022/07/16 04:55:07;;;;;;;1.40;1.30;;;;;;;;;;5031246;27;100638;-70
2022/07/16 04:57:34;;;;;;;3.63;1.40;;;;;;;;;;5032739;27;98685;-71
2022/07/16 05:00:00;;;;;;;5.00;1.50;;;;;;;;;;5029561;27;100082;-70
2022/07/16 05:05:30;;;;;;;4.43;2.10;;;;;;;;;;4973978;28;101443;-70
2022/07/16 05:07:57;;;;;;;4.35;1.40;;;;;;;;;;5016852;27;100392;-70
2022/07/16 05:10:24;;;;;;;2.90;1.35;;;;;;;;;;5030756;27;99982;-70
2022/07/16 05:12:51;;;;;;;3.83;1.70;;;;;;;;;;5031479;27;99126;-70
2022/07/16 05:15:17;;;;;;;3.63;1.30;;;;;;;;;;5028192;27;99452;-70
2022/07/16 05:17:44;;;;;;;8.55;1.83;;;;;;;;;;5026349;27;99898;-71
2022/07/16 05:20:11;;;;;;;3.80;1.60;;;;;;;;;;5028503;27;100856;-71
2022/07/16 05:22:37;;;;;;;4.22;1.75;;;;;;;;;;5030243;27;100194;-71
2022/07/16 05:25:05;;;;;;;3.35;1.33;;;;;;;;;;5029994;27;100098;-71
2022/07/16 05:27:31;;;;;;;6.47;2.05;;;;;;;;;;5026516;27;99971;-73
2022/07/16 05:29:58;;;;;;;9.25;1.30;;;;;;;;;;5031494;27;98876;-72
2022/07/16 05:32:24;;;;;;;5.70;1.83;;;;;;;;;;5035912;27;99986;-70
2022/07/16 05:34:51;;;;;;;5.60;1.85;;;;;;;;;;5026833;27;99096;-71
2022/07/16 05:37:17;;;;;;;6.82;1.50;;;;;;;;;;5031589;27;98878;-70
2022/07/16 05:39:43;;;;;;;9.95;3.28;;;;;;;;;;5029914;27;99177;-70
2022/07/16 05:42:10;;;;;;;5.68;1.38;;;;;;;;;;5024714;27;101829;-71
2022/07/16 05:44:37;;;;;;;3.28;1.20;;;;;;;;;;5033598;27;99083;-70
2022/07/16 05:47:04;;;;;;;3.78;1.10;;;;;;;;;;5023925;27;101047;-70
2022/07/16 05:49:31;;;;;;;4.03;1.25;;;;;;;;;;5026477;27;98647;-71
2022/07/16 05:51:57;;;;;;;6.00;1.95;;;;;;;;;;5025751;27;99444;-70
2022/07/16 05:54:24;;;;;;;3.33;1.30;;;;;;;;;;5025868;27;100230;-70
2022/07/16 05:56:50;;;;;;;8.10;1.52;;;;;;;;;;5025828;27;100136;-70
2022/07/16 05:59:17;;;;;;;5.07;1.70;;;;;;;;;;5026382;27;99909;-70
2022/07/16 06:01:43;;;;;;;5.85;1.67;;;;;;;;;;5027436;27;100190;-71
2022/07/16 06:04:15;;;;;;;3.22;1.55;;;;;;;;;;5031127;27;100015;-71
2022/07/16 06:06:41;;;;;;;5.55;1.45;;;;;;;;;;5029622;27;99992;-71
2022/07/16 06:09:08;;;;;;;5.18;1.25;;;;;;;;;;5026359;27;99089;-71
2022/07/16 06:11:34;;;;;;;5.45;1.60;;;;;;;;;;5026607;27;99903;-69
2022/07/16 06:14:01;;;;;;;6.10;1.67;;;;;;;;;;5025571;27;100449;-69
2022/07/16 06:16:27;;;;;;;3.85;1.40;;;;;;;;;;5027080;27;99307;-71
2022/07/16 06:18:53;;;;;;;5.05;1.77;;;;;;;;;;5026068;27;100031;-70
2022/07/16 06:21:20;;;;;;;2.95;1.70;;;;;;;;;;5027034;27;99585;-70
2022/07/16 06:23:46;;;;;;;9.38;1.60;;;;;;;;;;5026941;27;98839;-71
2022/07/16 06:26:13;;;;;;;6.53;1.50;;;;;;;;;;5030611;27;100011;-70
2022/07/16 06:28:39;;;;;;;8.02;1.50;;;;;;;;;;5026779;27;99441;-71
2022/07/16 06:31:05;;;;;;;10.02;1.67;;;;;;;;;;5027105;27;100676;-70
2022/07/16 06:33:32;;;;;;;3.50;1.52;;;;;;;;;;5026176;27;100154;-70
2022/07/16 06:35:58;;;;;;;5.80;1.23;;;;;;;;;;5028182;27;99444;-70
2022/07/16 06:38:24;;;;;;;8.80;1.67;;;;;;;;;;5027691;27;100003;-69
2022/07/16 06:40:51;;;;;;;5.57;1.33;;;;;;;;;;5029155;27;99439;-70
2022/07/16 06:43:17;;;;;;;4.60;1.48;;;;;;;;;;5028389;27;99675;-70
2022/07/16 06:45:44;;;;;;;2.65;1.42;;;;;;;;;;5026765;27;99964;-69
2022/07/16 06:48:11;;;;;;;2.30;1.20;;;;;;;;;;5031235;27;99400;-69
2022/07/16 06:50:37;;;;;;;3.03;1.30;;;;;;;;;;5023906;27;99003;-70
2022/07/16 06:53:04;;;;;;;3.47;1.42;;;;;;;;;;5026286;27;99854;-69
2022/07/16 06:55:30;;;;;;;3.33;1.27;;;;;;;;;;5025515;27;99956;-70
2022/07/16 06:57:56;;;;;;;6.50;1.60;;;;;;;;;;5029758;27;100251;-69
2022/07/16 07:00:23;;;;;;;3.78;1.42;;;;;;;;;;5035539;27;99716;-69
2022/07/16 07:02:49;;;;;;;4.25;1.60;;;;;;;;;;5035250;27;98606;-70
2022/07/16 07:05:16;;;;;;;4.43;1.58;;;;;;;;;;5032984;27;98887;-70
2022/07/16 07:07:43;;;;;;;2.08;1.40;;;;;;;;;;5029598;27;99410;-70
2022/07/16 07:10:09;;;;;;;10.65;1.83;;;;;;;;;;5034447;27;98572;-70
2022/07/16 07:12:36;;;;;;;5.57;1.50;;;;;;;;;;5030521;27;98602;-69
2022/07/16 07:15:05;;;;;;;2.10;0.80;;;;;;;;;;5030525;27;98624;-70
2022/07/16 07:17:32;;;;;;;3.30;1.60;;;;;;;;;;5028709;27;99158;-70
2022/07/16 07:19:58;;;;;;;3.05;1.48;;;;;;;;;;5027003;27;100631;-70
2022/07/16 07:22:24;;;;;;;2.67;1.05;;;;;;;;;;5039034;27;98631;-70
2022/07/16 07:24:51;;;;;;;1.85;1.05;;;;;;;;;;5038407;27;99085;-69
2022/07/16 07:27:18;;;;;;;3.63;1.45;;;;;;;;;;5033493;27;99540;-70
2022/07/16 07:29:45;;;;;;;6.10;1.40;;;;;;;;;;5028478;27;98987;-70
2022/07/16 07:32:11;;;;;;;3.63;1.38;;;;;;;;;;5031551;27;98946;-71
2022/07/16 07:34:38;;;;;;;4.97;1.60;;;;;;;;;;5029565;27;100039;-71
2022/07/16 07:37:04;;;;;;;3.22;1.17;;;;;;;;;;5039745;27;99179;-72
2022/07/16 07:39:30;;;;;;;2.70;1.63;;;;;;;;;;5031568;27;100541;-71
2022/07/16 07:41:57;;;;;;;4.60;1.60;;;;;;;;;;5035098;27;99010;-70
2022/07/16 07:44:23;;;;;;;3.83;1.40;;;;;;;;;;5030421;27;100197;-70
2022/07/16 07:46:51;;;;;;;3.38;1.73;;;;;;;;;;5028741;27;99463;-71
2022/07/16 07:49:17;;;;;;;4.28;1.25;;;;;;;;;;5032254;27;98698;-71
2022/07/16 07:51:44;;;;;;;2.63;1.35;;;;;;;;;;5045969;27;99715;-71
2022/07/16 07:54:10;;;;;;;3.65;1.33;;;;;;;;;;5031750;27;98552;-71
2022/07/16 07:56:38;;;;;;;3.88;1.40;;;;;;;;;;5035903;27;99024;-71
2022/07/16 07:59:05;;;;;;;2.75;1.23;;;;;;;;;;5035328;27;100375;-71
2022/07/16 08:01:31;;;;;;;6.10;1.30;;;;;;;;;;5034370;27;97848;-72
2022/07/16 08:04:01;;;;;;;4.60;1.65;;;;;;;;;;5004832;27;98794;-71
2022/07/16 08:06:35;;;;;;;2.70;1.10;;;;;;;;;;5031245;27;99422;-71
2022/07/16 08:09:04;;;;;;;5.53;1.63;;;;;;;;;;5030916;27;99385;-71
2022/07/16 08:11:33;;;;;;;1.40;1.02;;;;;;;;;;5040895;27;99554;-71
2022/07/16 08:14:00;;;;;;;6.40;1.42;;;;;;;;;;5045672;27;100573;-71
2022/07/16 08:16:46;;;;;;;3.95;1.30;;;;;;;;;;5013377;28;98976;-71
2022/07/16 08:19:13;;;;;;;1.98;1.20;;;;;;;;;;5030373;27;99406;-71
2022/07/16 08:21:39;;;;;;;4.80;1.33;;;;;;;;;;5031029;27;98645;-71
2022/07/16 08:26:53;;;;;;;6.25;1.45;;;;;;;;;;5027232;27;99275;-71
2022/07/16 08:29:20;;;;;;;2.88;1.55;;;;;;;;;;5034246;27;98564;-72
2022/07/16 08:31:48;;;;;;;2.67;1.05;;;;;;;;;;5023350;27;99055;-71
2022/07/16 08:34:16;;;;;;;6.18;1.52;;;;;;;;;;5011301;27;101773;-71
2022/07/16 08:36:43;;;;;;;5.95;1.15;;;;;;;;;;5044702;27;98632;-71
2022/07/16 08:39:11;;;;;;;1.40;1.02;;;;;;;;;;5032382;27;99833;-71
2022/07/16 08:41:39;;;;;;;3.65;1.45;;;;;;;;;;5030697;27;98669;-72
2022/07/16 08:44:07;;;;;;;4.85;1.10;;;;;;;;;;5034688;27;99296;-72
2022/07/16 08:46:34;;;;;;;2.17;1.20;;;;;;;;;;5036854;27;100934;-69
2022/07/16 08:49:01;;;;;;;5.38;2.40;;;;;;;;;;5031128;27;98653;-71
2022/07/16 08:51:32;;;;;;;2.50;1.00;;;;;;;;;;5049198;27;99941;-71
2022/07/16 08:54:20;;;;;;;2.30;1.05;;;;;;;;;;5033900;27;99529;-71
2022/07/16 08:56:51;;;;;;;3.40;1.30;;;;;;;;;;5021045;28;98861;-71
2022/07/16 08:59:18;;;;;;;2.47;1.08;;;;;;;;;;5033690;27;99562;-71
2022/07/16 09:01:46;;;;;;;3.97;1.05;;;;;;;;;;5029179;27;100314;-71
2022/07/16 09:04:12;;;;;;;4.13;1.33;;;;;;;;;;5030178;27;99104;-71
2022/07/16 09:06:39;;;;;;;3.55;1.25;;;;;;;;;;5029105;27;99513;-72
2022/07/16 09:09:07;;;;;;;2.25;1.00;;;;;;;;;;5031909;27;99407;-72
2022/07/16 09:11:34;;;;;;;1.38;1.00;;;;;;;;;;5034417;27;99140;-73
2022/07/16 09:14:05;;;;;;;3.10;1.27;;;;;;;;;;5035172;27;99150;-74
2022/07/16 09:16:40;;;;;;;6.13;1.13;;;;;;;;;;5031373;27;97870;-76
2022/07/16 09:19:10;;;;;;;2.67;1.15;;;;;;;;;;5029320;27;98587;-75
2022/07/16 09:22:00;;;;;;;4.30;1.73;;;;;;;;;;5031812;27;99638;-74
2022/07/16 09:24:46;;;;;;;2.75;0.80;;;;;;;;;;5030154;27;99439;-75
2022/07/16 09:27:13;;;;;;;4.68;1.33;;;;;;;;;;5030630;27;100491;-73
2022/07/16 09:29:45;;;;;;;2.42;1.27;;;;;;;;;;5039047;27;99535;-72
2022/07/16 09:32:32;;;;;;;2.97;0.80;;;;;;;;;;5031227;27;99381;-73
2022/07/16 09:35:05;;;;;;;4.65;1.10;;;;;;;;;;5013963;27;101134;-73
2022/07/16 09:37:52;;;;;;;2.75;1.25;;;;;;;;;;5041378;27;98588;-73
2022/07/16 09:40:35;;;;;;;2.45;1.10;;;;;;;;;;5041351;27;99768;-72
2022/07/16 09:43:24;;;;;;;2.88;1.65;;;;;;;;;;5038257;27;99235;-73
2022/07/16 09:45:58;;;;;;;6.68;1.45;;;;;;;;;;5034057;27;98482;-74
2022/07/16 09:48:26;;;;;;;1.70;0.82;;;;;;;;;;5030801;27;100452;-74
2022/07/16 09:50:53;;;;;;;2.53;1.33;;;;;;;;;;5045461;27;99421;-74
2022/07/16 09:53:24;;;;;;;3.97;0.95;;;;;;;;;;5037328;27;100911;-73
2022/07/16 09:55:58;;;;;;;1.80;1.17;;;;;;;;;;5032936;27;100735;-72
2022/07/16 09:58:25;;;;;;;2.85;1.00;;;;;;;;;;5031468;27;100701;-72
2022/07/16 10:00:52;;;;;;;4.13;1.35;;;;;;;;;;5034872;27;100041;-71
2022/07/16 10:03:18;;;;;;;1.45;0.80;;;;;;;;;;5031081;27;100634;-71
2022/07/16 10:05:45;;;;;;;3.17;0.98;;;;;;;;;;5039601;27;98744;-71
2022/07/16 10:08:12;;;;;;;3.05;1.20;;;;;;;;;;5030207;27;103617;-70
2022/07/16 10:10:38;;;;;;;3.25;0.90;;;;;;;;;;5033058;27;98590;-71
2022/07/16 10:13:05;;;;;;;3.72;1.10;;;;;;;;;;5042219;27;99950;-70
2022/07/16 10:15:31;;;;;;;6.53;1.10;;;;;;;;;;5030479;27;100538;-71
2022/07/16 10:17:58;;;;;;;3.42;0.80;;;;;;;;;;5029068;27;98574;-70
2022/07/16 10:20:24;;;;;;;3.25;1.30;;;;;;;;;;5038393;27;99103;-72
2022/07/16 10:22:51;;;;;;;6.25;1.95;;;;;;;;;;5039635;27;99486;-71
2022/07/16 10:25:25;;;;;;;5.85;1.60;;;;;;;;;;5037364;27;98651;-72
2022/07/16 10:27:53;;;;;;;3.95;1.40;;;;;;;;;;5043089;27;99280;-72
2022/07/16 10:30:22;;;;;;;7.15;1.60;;;;;;;;;;5044915;27;98756;-72
2022/07/16 10:33:07;;;;;;;7.32;0.95;;;;;;;;;;5032182;27;98274;-71
2022/07/16 10:35:40;;;;;;;1.92;0.93;;;;;;;;;;5028957;27;99802;-72
2022/07/16 10:38:06;;;;;;;5.45;1.27;;;;;;;;;;5036755;27;99112;-71
2022/07/16 10:41:03;;;;;;;5.63;1.20;;;;;;;;;;5024292;27;99418;-72
2022/07/16 10:43:29;;;;;;;2.92;1.13;;;;;;;;;;5033486;27;100837;-71
2022/07/16 10:45:57;;;;;;;4.72;1.20;;;;;;;;;;5039104;27;98985;-72
2022/07/16 10:48:26;;;;;;;5.03;1.30;;;;;;;;;;5029805;27;99184;-71
2022/07/16 10:51:23;;;;;;;6.65;1.58;;;;;;;;;;5046086;27;100630;-71
2022/07/16 10:53:56;;;;;;;3.28;0.90;;;;;;;;;;5017671;27;100085;-71
2022/07/16 10:56:35;;;;;;;3.90;1.20;;;;;;;;;;5037869;27;100243;-71
2022/07/16 10:59:05;;;;;;;2.17;1.25;;;;;;;;;;5037534;27;98565;-71
2022/07/16 11:01:33;;;;;;;5.03;1.10;;;;;;;;;;5045181;27;99069;-71
2022/07/16 11:04:02;;;;;;;2.17;0.90;;;;;;;;;;5036864;27;100316;-71
2022/07/16 11:06:31;;;;;;;5.80;1.35;;;;;;;;;;5036558;27;99501;-72
2022/07/16 11:09:01;;;;;;;4.32;0.93;;;;;;;;;;5028892;27;100267;-73
2022/07/16 11:11:33;;;;;;;3.75;1.23;;;;;;;;;;5035402;27;99451;-70
2022/07/16 11:14:00;;;;;;;3.08;1.08;;;;;;;;;;5033250;27;98978;-71
2022/07/16 11:16:26;;;;;;;2.85;1.63;;;;;;;;;;5029094;27;100283;-71
2022/07/16 11:18:53;;;;;;;2.92;0.98;;;;;;;;;;5044349;27;99510;-71
2022/07/16 11:21:19;;;;;;;4.80;1.20;;;;;;;;;;5028026;27;99674;-70
2022/07/16 11:23:48;;;;;;;3.70;1.10;;;;;;;;;;5030649;27;98927;-70
2022/07/16 11:26:19;;;;;;;6.50;1.52;;;;;;;;;;5051394;27;98614;-70
2022/07/16 11:28:51;;;;;;;8.18;1.50;;;;;;;;;;5031547;27;98994;-70
2022/07/16 11:31:22;;;;;;;5.50;1.10;;;;;;;;;;5030592;27;100142;-70
2022/07/16 11:33:49;;;;;;;3.20;1.60;;;;;;;;;;5032143;27;98565;-71
2022/07/16 11:36:16;;;;;;;4.80;1.20;;;;;;;;;;5034412;27;99193;-71
2022/07/16 11:38:43;;;;;;;6.22;1.33;;;;;;;;;;5032210;27;98608;-71
2022/07/16 11:41:10;;;;;;;8.95;1.85;;;;;;;;;;5032605;27;99702;-71
2022/07/16 11:43:36;;;;;;;3.60;1.70;;;;;;;;;;5030653;27;99743;-71
2022/07/16 11:46:03;;;;;;;6.75;1.85;;;;;;;;;;5031610;27;98518;-71
2022/07/16 11:48:35;;;;;;;5.13;1.73;;;;;;;;;;5031632;27;99095;-71
2022/07/16 11:51:06;;;;;;;1.25;0.80;;;;;;;;;;5031818;27;99260;-70
2022/07/16 11:53:37;;;;;;;2.20;1.33;;;;;;;;;;5034487;27;99536;-71
2022/07/16 11:56:05;;;;;;;4.85;1.60;;;;;;;;;;5031464;27;99615;-72
2022/07/16 11:58:31;;;;;;;2.83;1.23;;;;;;;;;;5035002;27;99657;-71
2022/07/16 12:00:58;;;;;;;2.67;1.50;;;;;;;;;;5031235;27;99479;-71
2022/07/16 12:03:24;;;;;;;4.28;1.63;;;;;;;;;;5036704;27;100188;-70
2022/07/16 12:05:59;;;;;;;1.92;0.90;;;;;;;;;;5032528;27;98720;-70
2022/07/16 12:08:27;;;;;;;1.63;0.82;;;;;;;;;;5032541;27;100142;-71
2022/07/16 12:11:03;;;;;;;4.47;1.07;;;;;;;;;;5033216;27;99463;-70
2022/07/16 12:13:29;;;;;;;3.70;1.10;;;;;;;;;;5038460;27;98459;-72
2022/07/16 12:15:57;;;;;;;1.58;0.70;;;;;;;;;;5039876;27;99274;-71
2022/07/16 12:18:24;;;;;;;2.65;0.93;;;;;;;;;;5033124;28;99763;-71
2022/07/16 12:20:53;;;;;;;7.15;1.33;;;;;;;;;;5035610;27;99345;-70
2022/07/16 12:23:31;;;;;;;4.03;1.15;;;;;;;;;;5040639;27;99878;-70
2022/07/16 12:26:01;;;;;;;3.08;1.02;;;;;;;;;;5033017;27;99814;-71
2022/07/16 12:28:29;;;;;;;2.60;0.90;;;;;;;;;;5044561;27;99072;-70
2022/07/16 12:30:59;;;;;;;6.63;1.75;;;;;;;;;;5040892;27;99346;-70
2022/07/16 12:33:29;;;;;;;3.35;1.35;;;;;;;;;;5042130;27;99075;-70
2022/07/16 12:35:55;;;;;;;3.50;1.00;;;;;;;;;;5032610;27;98826;-70
2022/07/16 12:38:48;;;;;;;4.38;1.10;;;;;;;;;;5030690;27;98713;-72
2022/07/16 12:41:16;;;;;;;9.88;2.17;;;;;;;;;;5047371;27;98623;-72
2022/07/16 12:43:44;;;;;;;5.22;1.10;;;;;;;;;;5036806;27;100048;-72
2022/07/16 12:46:11;;;;;;;4.50;1.00;;;;;;;;;;5029957;27;99341;-71
2022/07/16 12:48:42;;;;;;;2.80;1.20;;;;;;;;;;5030195;27;99687;-71
2022/07/16 12:51:12;;;;;;;5.72;1.60;;;;;;;;;;5030583;27;98601;-72
2022/07/16 12:53:39;;;;;;;4.60;1.58;;;;;;;;;;5034937;27;100015;-71
2022/07/16 12:58:54;;;;;;;2.65;1.02;;;;;;;;;;5038629;27;99286;-73
2022/07/16 13:01:22;;;;;;;6.13;1.20;;;;;;;;;;5031622;27;98775;-73
2022/07/16 13:03:48;;;;;;;2.60;1.10;;;;;;;;;;5037586;27;99119;-72
2022/07/16 13:06:16;;;;;;;7.20;1.20;;;;;;;;;;5029882;27;99020;-72
2022/07/16 13:08:45;;;;;;;2.03;1.02;;;;;;;;;;5039507;27;100082;-72
2022/07/16 13:11:12;;;;;;;6.38;1.30;;;;;;;;;;5031038;27;100944;-72
2022/07/16 13:13:39;;;;;;;3.38;1.02;;;;;;;;;;5028545;27;98985;-72
2022/07/16 13:16:07;;;;;;;2.88;0.98;;;;;;;;;;5028807;27;101484;-72
2022/07/16 13:18:36;;;;;;;2.60;1.10;;;;;;;;;;5014302;27;99202;-72
2022/07/16 13:21:03;;;;;;;3.38;1.15;;;;;;;;;;5039336;27;100353;-72
2022/07/16 13:23:29;;;;;;;3.45;1.33;;;;;;;;;;5044511;27;99660;-73
2022/07/16 13:25:56;;;;;;;4.05;1.15;;;;;;;;;;5036841;27;100217;-72
2022/07/16 13:28:23;;;;;;;11.88;1.38;;;;;;;;;;5039294;27;99145;-72
2022/07/16 13:30:49;;;;;;;4.43;1.20;;;;;;;;;;5035379;27;100369;-72
2022/07/16 13:33:16;;;;;;;3.90;1.30;;;;;;;;;;5046640;27;98548;-72
2022/07/16 13:35:50;;;;;;;2.05;1.00;;;;;;;;;;5029197;27;100509;-73
2022/07/16 13:38:17;;;;;;;3.97;1.30;;;;;;;;;;5030070;27;100219;-72
2022/07/16 13:40:44;;;;;;;2.83;0.98;;;;;;;;;;5029431;27;98610;-72
2022/07/16 13:43:11;;;;;;;5.30;1.33;;;;;;;;;;5030329;27;98949;-72
2022/07/16 13:45:38;;;;;;;4.43;1.20;;;;;;;;;;5032692;27;100348;-72
2022/07/16 13:48:06;;;;;;;4.28;1.17;;;;;;;;;;5044235;27;98630;-71
2022/07/16 13:50:33;;;;;;;2.10;1.15;;;;;;;;;;5031634;27;99150;-72
2022/07/16 13:52:59;;;;;;;5.65;1.48;;;;;;;;;;5038337;27;99312;-72
2022/07/16 13:55:26;;;;;;;2.50;1.35;;;;;;;;;;5031808;27;99428;-72
2022/07/16 14:00:37;;;;;;;4.05;1.08;;;;;;;;;;5033617;27;99614;-71
2022/07/16 14:03:04;;;;;;;2.80;1.17;;;;;;;;;;5030262;27;100365;-72
2022/07/16 14:05:32;;;;;;;1.40;0.82;;;;;;;;;;5034995;27;99470;-72
2022/07/16 14:07:59;;;;;;;7.10;1.67;;;;;;;;;;5037457;27;98603;-71
2022/07/16 14:10:25;;;;;;;4.25;1.02;;;;;;;;;;5032387;27;99005;-71
2022/07/16 14:12:51;;;;;;;2.33;1.05;;;;;;;;;;5029725;27;98540;-72
2022/07/16 14:15:18;;;;;;;2.10;1.13;;;;;;;;;;5029901;27;98969;-73
2022/07/16 14:17:44;;;;;;;2.72;0.90;;;;;;;;;;5043381;27;98790;-71
2022/07/16 14:20:12;;;;;;;3.55;1.20;;;;;;;;;;5040333;27;99017;-72
2022/07/16 14:22:39;;;;;;;11.93;2.40;;;;;;;;;;5030046;27;98620;-72
2022/07/16 14:25:07;;;;;;;3.38;1.30;;;;;;;;;;5037936;27;100369;-71
2022/07/16 14:27:34;;;;;;;6.60;1.25;;;;;;;;;;5029519;27;98665;-72
2022/07/16 14:30:02;;;;;;;5.72;1.25;;;;;;;;;;5046100;27;100541;-72
2022/07/16 14:32:28;;;;;;;4.38;1.20;;;;;;;;;;5043701;27;98819;-72
2022/07/16 14:34:55;;;;;;;3.15;1.30;;;;;;;;;;5032402;27;100229;-72
2022/07/16 14:37:24;;;;;;;3.67;1.50;;;;;;;;;;5028272;27;99332;-72
2022/07/16 14:39:51;;;;;;;5.13;1.83;;;;;;;;;;5036801;27;99227;-73
2022/07/16 14:42:18;;;;;;;5.75;1.63;;;;;;;;;;5035792;27;98901;-71
2022/07/16 14:44:44;;;;;;;5.00;1.30;;;;;;;;;;5028304;27;100324;-71
2022/07/16 14:47:10;;;;;;;9.30;1.48;;;;;;;;;;5029169;27;98519;-72
2022/07/16 14:49:38;;;;;;;5.80;1.20;;;;;;;;;;5028874;27;100703;-72
2022/07/16 14:52:04;;;;;;;5.40;1.40;;;;;;;;;;5035097;27;100370;-72
2022/07/16 14:54:30;;;;;;;5.45;1.52;;;;;;;;;;5033476;27;100205;-72
2022/07/16 14:56:57;;;;;;;4.82;1.27;;;;;;;;;;5032885;27;100180;-71
2022/07/16 14:59:23;;;;;;;2.28;0.98;;;;;;;;;;5032229;27;99469;-71